Time;durP1;ratioP1;P1;durP2;ratioP2;P2;SDS_P1;SDS_P2;PMS_P1;PMS_P2;Temp;Humidity;BMP_temperature;BMP_pressure;BME280_temperature;BME280_humidity;BME280_pressure;Samples;Min_cycle;Max_cycle;Signal;HPM_P1;HPM_P2
2022/02/27 00:00:58;;;;;;;4.63;1.55;;;2.40;80.00;;;;;;4992809;28;20046;-77
2022/02/27 00:03:26;;;;;;;4.88;2.03;;;2.40;80.00;;;;;;4995344;28;20038;-78
2022/02/27 00:05:54;;;;;;;4.78;1.52;;;2.40;80.10;;;;;;4993281;28;20054;-74
2022/02/27 00:08:23;;;;;;;5.57;1.85;;;2.40;80.20;;;;;;4988735;28;21343;-75
2022/02/27 00:10:50;;;;;;;5.40;1.98;;;2.40;80.20;;;;;;4991365;28;20046;-77
2022/02/27 00:13:18;;;;;;;7.20;2.17;;;2.40;80.40;;;;;;4988707;28;20050;-75
2022/02/27 00:15:45;;;;;;;5.55;2.10;;;2.40;80.60;;;;;;4992556;28;20046;-75
2022/02/27 00:18:13;;;;;;;3.83;1.60;;;2.50;80.60;;;;;;4992280;28;20045;-77
2022/02/27 00:20:42;;;;;;;8.23;2.03;;;2.50;80.60;;;;;;4995153;28;20046;-76
2022/02/27 00:23:12;;;;;;;5.50;1.98;;;2.40;80.60;;;;;;4992818;28;20080;-75
2022/02/27 00:25:44;;;;;;;6.70;2.03;;;2.50;80.60;;;;;;4992921;28;20053;-74
2022/02/27 00:28:13;;;;;;;5.07;2.58;;;2.40;80.50;;;;;;4992364;28;20050;-77
2022/02/27 00:30:40;;;;;;;9.15;2.58;;;2.50;80.40;;;;;;4991821;28;20152;-76
2022/02/27 00:33:08;;;;;;;4.80;2.65;;;2.40;80.40;;;;;;4993375;28;20046;-75
2022/02/27 00:35:36;;;;;;;5.75;2.20;;;2.40;80.30;;;;;;4992071;28;20038;-75
2022/02/27 00:38:10;;;;;;;4.45;2.03;;;2.30;80.30;;;;;;4969844;28;20080;-74
2022/02/27 00:40:39;;;;;;;4.78;2.40;;;2.30;80.20;;;;;;4994373;28;20050;-74
2022/02/27 00:43:10;;;;;;;6.25;2.38;;;2.30;80.20;;;;;;4992290;28;20042;-75
2022/02/27 00:45:39;;;;;;;4.90;2.60;;;2.30;80.20;;;;;;4992447;28;20659;-75
2022/02/27 00:48:08;;;;;;;5.85;3.30;;;2.30;80.30;;;;;;4988514;28;20672;-74
2022/02/27 00:50:36;;;;;;;4.78;2.15;;;2.20;80.30;;;;;;4979050;28;20103;-73
2022/02/27 00:53:06;;;;;;;7.68;2.78;;;2.20;80.20;;;;;;4993034;28;20067;-76
2022/02/27 00:55:33;;;;;;;9.20;2.67;;;2.20;80.10;;;;;;4974634;28;20136;-73
2022/02/27 00:58:04;;;;;;;6.97;2.35;;;2.20;80.10;;;;;;4978505;28;20475;-73
2022/02/27 01:00:33;;;;;;;10.18;3.13;;;2.20;80.10;;;;;;4977582;28;20104;-76
2022/02/27 01:03:02;;;;;;;8.10;2.70;;;2.10;80.20;;;;;;4992525;28;20049;-76
2022/02/27 01:05:30;;;;;;;8.80;3.00;;;2.20;80.10;;;;;;4989927;28;20054;-73
2022/02/27 01:07:57;;;;;;;7.63;2.17;;;2.10;80.10;;;;;;4992017;28;20054;-76
2022/02/27 01:10:24;;;;;;;10.40;2.53;;;2.10;80.00;;;;;;4991910;28;20057;-78
2022/02/27 01:12:52;;;;;;;7.93;2.10;;;2.10;80.10;;;;;;4971853;28;20046;-75
2022/02/27 01:15:22;;;;;;;6.22;3.15;;;2.00;80.00;;;;;;4994312;28;20038;-75
2022/02/27 01:17:55;;;;;;;5.30;2.25;;;2.00;80.10;;;;;;4974380;28;20579;-76
2022/02/27 01:20:22;;;;;;;5.47;2.28;;;2.00;80.10;;;;;;4990889;28;20038;-75
2022/02/27 01:22:50;;;;;;;4.53;1.58;;;2.00;80.20;;;;;;4985492;28;20042;-73
2022/02/27 01:25:19;;;;;;;5.47;1.73;;;2.00;80.10;;;;;;4991305;28;20056;-75
2022/02/27 01:27:51;;;;;;;7.45;2.20;;;2.00;80.10;;;;;;4985984;28;20038;-77
2022/02/27 01:30:22;;;;;;;4.88;2.50;;;1.90;80.10;;;;;;4971529;28;20838;-76
2022/02/27 01:32:50;;;;;;;5.25;1.80;;;1.90;80.10;;;;;;4995472;28;20141;-75
2022/02/27 01:35:21;;;;;;;3.53;1.70;;;1.90;80.10;;;;;;4995458;28;20114;-76
2022/02/27 01:37:59;;;;;;;4.53;2.05;;;1.80;80.10;;;;;;5000659;28;20051;-74
2022/02/27 01:40:31;;;;;;;9.30;3.15;;;1.80;80.00;;;;;;4985781;28;20263;-74
2022/02/27 01:42:59;;;;;;;6.30;2.08;;;1.80;80.10;;;;;;4999667;28;20053;-74
2022/02/27 01:45:29;;;;;;;3.50;1.75;;;1.80;80.20;;;;;;4977859;28;20053;-76
2022/02/27 01:48:10;;;;;;;3.92;1.98;;;1.80;80.10;;;;;;4997594;28;20117;-75
2022/02/27 01:50:39;;;;;;;8.77;2.15;;;1.80;80.00;;;;;;4991341;28;20038;-76
2022/02/27 01:53:06;;;;;;;3.20;2.00;;;1.80;80.00;;;;;;4993315;28;20065;-76
2022/02/27 01:55:35;;;;;;;8.52;2.53;;;1.70;80.00;;;;;;4992776;28;20093;-76
2022/02/27 01:58:03;;;;;;;4.80;1.75;;;1.70;80.00;;;;;;4992753;28;20054;-74
2022/02/27 02:00:31;;;;;;;8.60;2.15;;;1.70;80.00;;;;;;4991265;28;20606;-76
2022/02/27 02:03:03;;;;;;;3.45;2.00;;;1.70;80.00;;;;;;4991973;28;20054;-75
2022/02/27 02:05:31;;;;;;;5.20;2.72;;;1.70;80.00;;;;;;4975444;28;20127;-77
2022/02/27 02:08:01;;;;;;;5.35;1.98;;;1.70;80.00;;;;;;4972652;28;20053;-76
2022/02/27 02:10:30;;;;;;;11.30;2.92;;;1.70;79.90;;;;;;4990121;28;20133;-75
2022/02/27 02:13:01;;;;;;;11.57;2.38;;;1.60;80.00;;;;;;4979300;28;20045;-76
2022/02/27 02:15:30;;;;;;;4.22;2.35;;;1.60;79.90;;;;;;4996095;28;20056;-75
2022/02/27 02:17:57;;;;;;;6.30;2.47;;;1.60;79.90;;;;;;4978819;28;20503;-75
2022/02/27 02:20:26;;;;;;;7.32;2.13;;;1.60;79.90;;;;;;4995565;28;20046;-76
2022/02/27 02:22:59;;;;;;;5.55;2.05;;;1.50;79.90;;;;;;4994842;28;20048;-75
2022/02/27 02:25:27;;;;;;;7.88;2.65;;;1.60;79.90;;;;;;4969874;28;20057;-75
2022/02/27 02:27:56;;;;;;;5.97;2.15;;;1.60;79.80;;;;;;4976859;28;20073;-75
2022/02/27 02:30:24;;;;;;;4.78;2.00;;;1.50;79.90;;;;;;4977556;28;20054;-76
2022/02/27 02:32:55;;;;;;;5.40;2.85;;;1.50;79.90;;;;;;4981410;28;20479;-73
2022/02/27 02:35:26;;;;;;;3.72;2.08;;;1.50;79.80;;;;;;4996003;28;20676;-73
2022/02/27 02:38:00;;;;;;;5.90;2.08;;;1.50;79.80;;;;;;4975140;28;20106;-75
2022/02/27 02:40:31;;;;;;;3.67;1.88;;;1.50;79.80;;;;;;4956370;28;20046;-75
2022/02/27 02:43:01;;;;;;;6.10;2.03;;;1.50;79.70;;;;;;4953538;28;20113;-74
2022/02/27 02:45:29;;;;;;;5.43;2.28;;;1.40;79.80;;;;;;4960113;28;20174;-74
2022/02/27 02:48:01;;;;;;;6.80;2.22;;;1.40;79.80;;;;;;4959890;28;20435;-75
2022/02/27 02:50:32;;;;;;;4.43;2.28;;;1.40;79.80;;;;;;4962823;28;20142;-73
2022/02/27 02:53:00;;;;;;;4.40;1.63;;;1.40;79.90;;;;;;4960696;28;20137;-76
2022/02/27 02:55:28;;;;;;;6.40;1.45;;;1.40;79.80;;;;;;4951978;28;20081;-77
2022/02/27 02:58:01;;;;;;;7.20;1.80;;;1.30;79.80;;;;;;4953871;28;20047;-77
2022/02/27 03:00:29;;;;;;;6.20;1.83;;;1.30;79.90;;;;;;4956585;28;20065;-76
2022/02/27 03:02:56;;;;;;;6.15;2.08;;;1.30;79.80;;;;;;4972878;28;20054;-75
2022/02/27 03:05:27;;;;;;;5.57;1.98;;;1.30;79.80;;;;;;4972493;28;20074;-75
2022/02/27 03:08:02;;;;;;;4.03;2.08;;;1.30;79.80;;;;;;4972833;28;20532;-76
2022/02/27 03:10:29;;;;;;;;;;;1.30;79.70;;;;;;4977085;28;20049;-74
2022/02/27 03:12:56;;;;;;;4.07;1.85;;;1.30;79.60;;;;;;4975695;28;19932;-75
2022/02/27 03:15:23;;;;;;;7.85;2.17;;;1.20;79.70;;;;;;4975436;28;20077;-74
2022/02/27 03:17:51;;;;;;;7.35;2.58;;;1.20;79.80;;;;;;4974286;28;20499;-74
2022/02/27 03:20:18;;;;;;;4.63;1.60;;;1.20;79.90;;;;;;4974776;28;20042;-73
2022/02/27 03:22:46;;;;;;;8.80;2.13;;;1.20;79.90;;;;;;4976743;28;20123;-76
2022/02/27 03:25:15;;;;;;;7.35;2.05;;;1.20;79.80;;;;;;4975914;28;20054;-75
2022/02/27 03:27:43;;;;;;;5.82;2.20;;;1.20;79.60;;;;;;4974466;28;20136;-74
2022/02/27 03:30:13;;;;;;;4.57;1.92;;;1.20;79.70;;;;;;4972496;28;20089;-75
2022/02/27 03:32:46;;;;;;;8.90;2.83;;;1.20;79.70;;;;;;4977341;28;20609;-75
2022/02/27 03:35:17;;;;;;;8.07;2.50;;;1.20;79.90;;;;;;4975817;28;20485;-74
2022/02/27 03:37:49;;;;;;;9.82;2.03;;;1.20;79.90;;;;;;4994399;28;20078;-76
2022/02/27 03:40:18;;;;;;;7.72;2.13;;;1.10;79.90;;;;;;4998459;28;20041;-76
2022/02/27 03:42:46;;;;;;;6.38;1.42;;;1.10;79.90;;;;;;4995550;28;20171;-76
2022/02/27 03:45:15;;;;;;;4.82;1.98;;;1.10;79.90;;;;;;4995763;28;20041;-75
2022/02/27 03:47:43;;;;;;;3.20;1.25;;;1.10;79.80;;;;;;4991548;28;20084;-76
2022/02/27 03:50:13;;;;;;;6.70;1.95;;;1.10;79.70;;;;;;4992630;28;20100;-73
2022/02/27 03:52:44;;;;;;;4.55;1.35;;;1.00;79.90;;;;;;4995086;28;20096;-75
2022/02/27 03:55:15;;;;;;;6.75;2.78;;;1.00;79.80;;;;;;4993939;28;20077;-77
2022/02/27 03:57:45;;;;;;;5.07;2.28;;;1.00;79.80;;;;;;4995223;28;20047;-75
2022/02/27 04:00:15;;;;;;;6.45;2.33;;;1.00;80.10;;;;;;4991179;28;20034;-74
2022/02/27 04:02:45;;;;;;;3.85;2.05;;;1.00;80.00;;;;;;4992398;28;20065;-77
2022/02/27 04:05:13;;;;;;;8.38;2.53;;;1.00;80.10;;;;;;4992878;28;20053;-75
2022/02/27 04:07:41;;;;;;;7.03;2.47;;;1.00;80.00;;;;;;4991071;28;20142;-75
2022/02/27 04:10:11;;;;;;;4.57;1.88;;;1.00;80.10;;;;;;4989554;28;20045;-73
2022/02/27 04:12:49;;;;;;;4.40;1.70;;;1.00;80.10;;;;;;4979318;28;20057;-73
2022/02/27 04:15:21;;;;;;;7.28;2.50;;;1.00;80.20;;;;;;4991655;28;20056;-74
2022/02/27 04:17:49;;;;;;;4.28;1.92;;;1.00;80.30;;;;;;4974748;28;20046;-74
2022/02/27 04:20:16;;;;;;;4.60;1.77;;;1.00;80.20;;;;;;4990984;28;20047;-75
2022/02/27 04:22:45;;;;;;;6.13;1.88;;;1.00;80.10;;;;;;4993256;28;20049;-74
2022/02/27 04:25:15;;;;;;;5.15;2.13;;;1.00;80.20;;;;;;4993546;28;20054;-74
2022/02/27 04:27:42;;;;;;;8.25;1.67;;;1.00;80.10;;;;;;4993442;28;20052;-75
2022/02/27 04:30:14;;;;;;;6.13;2.17;;;1.00;80.10;;;;;;4993975;28;20094;-74
2022/02/27 04:32:41;;;;;;;5.45;2.55;;;1.00;80.20;;;;;;4992258;28;20550;-75
2022/02/27 04:35:14;;;;;;;5.82;2.03;;;1.00;80.10;;;;;;4992987;28;20073;-76
2022/02/27 04:37:44;;;;;;;4.97;2.17;;;1.00;80.00;;;;;;4993100;28;20067;-79
2022/02/27 04:40:13;;;;;;;6.22;2.30;;;1.00;80.00;;;;;;4970362;28;20050;-75
2022/02/27 04:42:41;;;;;;;3.53;1.88;;;1.00;80.00;;;;;;4991947;28;20053;-76
2022/02/27 04:45:20;;;;;;;3.97;1.90;;;1.00;79.90;;;;;;4981398;28;20047;-74
2022/02/27 04:47:48;;;;;;;4.30;1.87;;;0.90;79.90;;;;;;4991651;28;20135;-76
2022/02/27 04:50:16;;;;;;;5.90;2.45;;;0.90;79.90;;;;;;4991999;28;20493;-75
2022/02/27 04:52:44;;;;;;;3.92;1.73;;;0.90;79.80;;;;;;4992785;28;20050;-74
2022/02/27 04:55:12;;;;;;;3.95;1.48;;;0.90;79.80;;;;;;4994761;28;20078;-75
2022/02/27 04:57:42;;;;;;;3.65;1.50;;;0.90;79.70;;;;;;4994868;28;20050;-75
2022/02/27 05:02:59;;;;;;;2.10;1.17;;;0.80;79.90;;;;;;4986943;28;20141;-76
2022/02/27 05:05:30;;;;;;;5.72;2.78;;;0.80;79.90;;;;;;4992221;28;21543;-79
2022/02/27 05:07:57;;;;;;;8.95;2.10;;;0.80;79.90;;;;;;4994100;28;20573;-76
2022/02/27 05:10:31;;;;;;;5.28;2.35;;;0.70;79.90;;;;;;4976412;28;20054;-76
2022/02/27 05:12:59;;;;;;;4.70;2.10;;;0.70;80.00;;;;;;4992696;28;20053;-75
2022/02/27 05:15:27;;;;;;;5.55;1.40;;;0.70;79.90;;;;;;4996872;28;20060;-76
2022/02/27 05:17:57;;;;;;;4.57;2.15;;;0.70;79.90;;;;;;4993651;28;20061;-77
2022/02/27 05:20:25;;;;;;;4.90;2.70;;;0.70;79.90;;;;;;4993574;28;20547;-78
2022/02/27 05:22:53;;;;;;;4.40;1.55;;;0.70;79.90;;;;;;4992233;28;20073;-76
2022/02/27 05:25:22;;;;;;;3.88;1.70;;;0.70;80.10;;;;;;4993246;28;20043;-74
2022/02/27 05:27:52;;;;;;;2.95;1.45;;;0.70;80.10;;;;;;4995464;28;20056;-75
2022/02/27 05:30:24;;;;;;;4.38;1.50;;;0.70;80.00;;;;;;4993672;28;20050;-75
2022/02/27 05:32:55;;;;;;;4.13;2.13;;;0.60;80.00;;;;;;4992802;28;20034;-75
2022/02/27 05:35:23;;;;;;;;;;;0.60;80.20;;;;;;4993972;28;20124;-76
2022/02/27 05:38:09;;;;;;;5.90;1.30;;;0.60;80.30;;;;;;4991724;28;19936;-74
2022/02/27 05:40:37;;;;;;;3.38;1.65;;;0.70;80.20;;;;;;4995110;28;20058;-75
2022/02/27 05:43:08;;;;;;;5.00;1.63;;;0.70;80.20;;;;;;4996829;28;20135;-74
2022/02/27 05:45:38;;;;;;;5.00;1.85;;;0.70;80.10;;;;;;4994328;28;20054;-76
2022/02/27 05:48:06;;;;;;;5.07;1.88;;;0.70;80.10;;;;;;4990630;28;20515;-77
2022/02/27 05:50:35;;;;;;;3.28;1.80;;;0.60;80.10;;;;;;4992346;28;20065;-77
2022/02/27 05:53:02;;;;;;;4.18;1.70;;;0.70;80.10;;;;;;4991047;28;20050;-77
2022/02/27 05:55:32;;;;;;;3.10;1.40;;;0.60;80.00;;;;;;4989253;28;20052;-79
2022/02/27 05:57:59;;;;;;;4.55;1.55;;;0.60;80.10;;;;;;4988449;28;20537;-77
2022/02/27 06:00:30;;;;;;;4.07;1.58;;;0.60;80.00;;;;;;4991896;28;20049;-75
2022/02/27 06:02:57;;;;;;;;;;;0.60;80.00;;;;;;4994559;28;20043;-76
2022/02/27 06:05:24;;;;;;;2.50;1.58;;;0.60;79.90;;;;;;4993989;28;20399;-75
2022/02/27 06:07:53;;;;;;;3.67;1.48;;;0.60;80.00;;;;;;4976164;28;20054;-73
2022/02/27 06:10:23;;;;;;;2.78;1.40;;;0.50;79.90;;;;;;4992066;28;20058;-75
2022/02/27 06:13:00;;;;;;;5.03;2.03;;;0.50;80.10;;;;;;4990850;28;20054;-72
2022/02/27 06:15:28;;;;;;;4.97;1.65;;;0.50;80.00;;;;;;4991572;28;20049;-75
2022/02/27 06:17:55;;;;;;;4.38;1.55;;;0.50;80.00;;;;;;4991883;28;20130;-76
2022/02/27 06:20:23;;;;;;;7.32;1.60;;;0.40;80.10;;;;;;4994604;28;20052;-75
2022/02/27 06:22:51;;;;;;;3.47;1.58;;;0.40;80.10;;;;;;4972232;28;20081;-76
2022/02/27 06:25:21;;;;;;;6.80;1.85;;;0.50;80.20;;;;;;4997354;28;20652;-75
2022/02/27 06:27:48;;;;;;;2.83;1.67;;;0.50;80.30;;;;;;4997562;28;20038;-75
2022/02/27 06:30:16;;;;;;;3.28;1.73;;;0.50;80.50;;;;;;4995900;28;20137;-74
2022/02/27 06:32:47;;;;;;;4.25;1.33;;;0.50;80.90;;;;;;4996142;28;20049;-75
2022/02/27 06:35:17;;;;;;;5.78;1.48;;;0.50;81.10;;;;;;4993978;28;20061;-74
2022/02/27 06:37:44;;;;;;;7.95;1.73;;;0.50;81.30;;;;;;4993737;28;20054;-75
2022/02/27 06:40:13;;;;;;;4.30;1.73;;;0.60;81.30;;;;;;4995854;28;20571;-75
2022/02/27 06:42:43;;;;;;;5.25;1.80;;;0.60;81.20;;;;;;4996136;28;20108;-76
2022/02/27 06:45:11;;;;;;;3.40;1.30;;;0.60;81.20;;;;;;4995100;28;20049;-74
2022/02/27 06:47:42;;;;;;;6.90;2.63;;;0.60;81.20;;;;;;4996159;28;20057;-76
2022/02/27 06:50:11;;;;;;;3.00;1.75;;;0.60;81.20;;;;;;4995730;28;20053;-75
2022/02/27 06:52:39;;;;;;;7.55;2.35;;;0.60;81.30;;;;;;4994895;28;20061;-76
2022/02/27 06:55:08;;;;;;;4.30;1.65;;;0.60;81.20;;;;;;4977395;28;20134;-75
2022/02/27 06:57:35;;;;;;;4.07;1.95;;;0.60;81.20;;;;;;4996034;28;20096;-75
2022/02/27 07:00:18;;;;;;;5.88;2.28;;;0.60;81.10;;;;;;4997288;28;20909;-69
2022/02/27 07:02:49;;;;;;;4.68;1.65;;;0.60;81.10;;;;;;4978324;28;20053;-75
2022/02/27 07:05:19;;;;;;;;;;;0.60;81.20;;;;;;4997621;28;21991;-75
2022/02/27 07:07:47;;;;;;;5.22;2.55;;;0.60;81.10;;;;;;4997785;28;20355;-75
2022/02/27 07:10:16;;;;;;;3.20;1.38;;;0.60;81.20;;;;;;4997226;28;20049;-74
2022/02/27 07:12:46;;;;;;;3.13;1.35;;;0.70;81.30;;;;;;4999064;28;20057;-76
2022/02/27 07:15:15;;;;;;;5.20;2.10;;;0.70;81.30;;;;;;4998394;28;20038;-75
2022/02/27 07:17:42;;;;;;;4.35;2.08;;;0.70;81.30;;;;;;4997963;28;20048;-75
2022/02/27 07:20:16;;;;;;;9.43;3.88;;;0.70;81.40;;;;;;4996076;28;20054;-76
2022/02/27 07:22:48;;;;;;;4.20;2.67;;;0.80;81.30;;;;;;4998511;28;20579;-76
2022/02/27 07:25:15;;;;;;;6.00;2.30;;;0.70;81.50;;;;;;4997364;28;20591;-76
2022/02/27 07:27:42;;;;;;;5.03;1.88;;;0.80;81.60;;;;;;4997288;28;20049;-74
2022/02/27 07:30:10;;;;;;;4.70;1.90;;;0.80;81.60;;;;;;4994250;28;20080;-75
2022/02/27 07:32:39;;;;;;;5.30;1.92;;;0.80;81.70;;;;;;4996007;28;20071;-76
2022/02/27 07:35:11;;;;;;;5.93;2.00;;;0.90;81.70;;;;;;4995439;28;20105;-76
2022/02/27 07:37:39;;;;;;;5.05;2.05;;;0.90;81.60;;;;;;4996141;28;20058;-75
2022/02/27 07:40:09;;;;;;;4.43;1.98;;;0.90;81.80;;;;;;4997380;28;20057;-74
2022/02/27 07:42:37;;;;;;;4.15;2.03;;;0.90;81.70;;;;;;4996234;28;20057;-76
2022/02/27 07:45:06;;;;;;;3.25;2.22;;;1.00;81.80;;;;;;4976823;28;21086;-77
2022/02/27 07:47:34;;;;;;;5.53;2.47;;;0.90;81.90;;;;;;4997133;28;20050;-75
2022/02/27 07:50:20;;;;;;;5.28;2.67;;;1.00;82.00;;;;;;4992347;28;20049;-74
2022/02/27 07:52:49;;;;;;;3.72;1.83;;;1.10;82.10;;;;;;4996199;28;20050;-75
2022/02/27 07:55:19;;;;;;;6.00;2.88;;;1.10;82.10;;;;;;4995724;28;20048;-76
2022/02/27 07:57:46;;;;;;;8.27;2.17;;;1.10;82.00;;;;;;4994524;28;20050;-77
2022/02/27 08:00:15;;;;;;;5.55;1.52;;;1.20;82.10;;;;;;4990583;28;20057;-75
2022/02/27 08:02:45;;;;;;;4.38;1.77;;;1.20;82.20;;;;;;4994709;28;20188;-78
2022/02/27 08:05:13;;;;;;;4.55;1.73;;;1.20;82.30;;;;;;4997987;28;20042;-74
2022/02/27 08:07:42;;;;;;;7.72;2.50;;;1.30;82.30;;;;;;4996733;28;20050;-77
2022/02/27 08:10:11;;;;;;;7.65;1.48;;;1.30;82.20;;;;;;4996449;28;20420;-76
2022/02/27 08:12:42;;;;;;;6.25;2.78;;;1.40;82.40;;;;;;4992590;28;20057;-76
2022/02/27 08:15:12;;;;;;;7.15;2.42;;;1.40;82.30;;;;;;4996098;28;20046;-77
2022/02/27 08:17:51;;;;;;;8.57;2.60;;;1.50;82.30;;;;;;4994205;28;20046;-75
2022/02/27 08:20:18;;;;;;;5.63;2.33;;;1.60;82.30;;;;;;4993481;28;20050;-74
2022/02/27 08:22:48;;;;;;;3.63;1.73;;;1.60;82.30;;;;;;4996977;28;20035;-75
2022/02/27 08:25:15;;;;;;;5.18;1.77;;;1.70;82.10;;;;;;4996323;28;20042;-76
2022/02/27 08:27:43;;;;;;;4.57;2.08;;;1.80;81.80;;;;;;4994374;28;20142;-73
2022/02/27 08:30:17;;;;;;;4.47;2.40;;;1.90;81.90;;;;;;4993440;28;20748;-75
2022/02/27 08:32:49;;;;;;;6.45;2.42;;;2.00;82.00;;;;;;4994775;28;20154;-76
2022/02/27 08:35:20;;;;;;;5.43;2.72;;;2.00;82.10;;;;;;4994860;28;20049;-75
2022/02/27 08:37:49;;;;;;;4.82;1.95;;;2.10;82.00;;;;;;4992629;28;20056;-75
2022/02/27 08:40:16;;;;;;;10.07;3.15;;;2.20;82.30;;;;;;4994212;28;20046;-77
2022/02/27 08:42:44;;;;;;;7.97;2.83;;;2.20;82.20;;;;;;4993676;28;20125;-75
2022/02/27 08:45:12;;;;;;;12.52;3.40;;;2.30;82.40;;;;;;4992940;28;20050;-76
2022/02/27 08:47:42;;;;;;;6.00;2.70;;;2.30;82.40;;;;;;4994008;28;20052;-74
2022/02/27 08:50:10;;;;;;;9.60;2.70;;;2.40;82.50;;;;;;4993225;28;20048;-75
2022/02/27 08:52:37;;;;;;;8.23;2.85;;;2.50;82.80;;;;;;4993163;28;20050;-75
2022/02/27 08:55:18;;;;;;;8.07;2.25;;;2.60;82.70;;;;;;4994685;28;20116;-76
2022/02/27 08:57:46;;;;;;;5.25;2.00;;;2.70;82.90;;;;;;4992661;28;20050;-77
2022/02/27 09:00:18;;;;;;;6.78;2.80;;;2.80;82.90;;;;;;4990586;28;20054;-75
2022/02/27 09:02:46;;;;;;;7.95;3.05;;;2.90;83.00;;;;;;4992376;28;20072;-74
2022/02/27 09:05:32;;;;;;;6.50;1.70;;;3.00;83.00;;;;;;4991924;28;20064;-74
2022/02/27 09:08:00;;;;;;;3.63;2.05;;;3.10;82.70;;;;;;4993532;28;20092;-74
2022/02/27 09:10:29;;;;;;;4.95;1.95;;;3.20;82.60;;;;;;4992427;28;20464;-75
2022/02/27 09:12:57;;;;;;;5.90;1.67;;;3.30;82.50;;;;;;4993291;28;20053;-76
2022/02/27 09:15:25;;;;;;;7.20;2.58;;;3.40;82.50;;;;;;4990270;28;20042;-74
2022/02/27 09:17:53;;;;;;;6.32;2.10;;;3.50;82.40;;;;;;4990680;28;20524;-74
2022/02/27 09:20:21;;;;;;;5.68;1.40;;;3.60;82.60;;;;;;4990572;28;20124;-77
2022/02/27 09:22:52;;;;;;;5.68;2.25;;;3.70;82.50;;;;;;4970115;28;20060;-76
2022/02/27 09:25:20;;;;;;;4.85;2.15;;;3.80;82.40;;;;;;4990850;28;20074;-77
2022/02/27 09:27:49;;;;;;;6.20;2.20;;;3.90;82.40;;;;;;4988870;28;20045;-73
2022/02/27 09:30:21;;;;;;;4.13;1.90;;;4.00;82.40;;;;;;4989524;28;20120;-76
2022/02/27 09:32:49;;;;;;;6.47;1.90;;;4.10;82.40;;;;;;4971351;28;20125;-76
2022/02/27 09:35:16;;;;;;;4.15;1.63;;;4.20;82.10;;;;;;4991255;28;20062;-75
2022/02/27 09:37:47;;;;;;;10.38;1.27;;;4.30;81.90;;;;;;4992052;28;20047;-74
2022/02/27 09:40:14;;;;;;;2.78;1.35;;;4.30;81.50;;;;;;4988960;28;20077;-78
2022/02/27 09:42:41;;;;;;;8.80;1.52;;;4.40;81.40;;;;;;4990216;28;20034;-76
2022/02/27 09:45:11;;;;;;;6.78;2.90;;;4.50;81.20;;;;;;4991564;28;20053;-74
2022/02/27 09:47:38;;;;;;;6.35;1.98;;;4.60;81.20;;;;;;4993206;28;20408;-75
2022/02/27 09:50:07;;;;;;;7.47;2.08;;;4.60;81.00;;;;;;4990871;28;20165;-75
2022/02/27 09:52:35;;;;;;;4.70;2.28;;;4.70;80.90;;;;;;4993542;28;20042;-74
2022/02/27 09:55:02;;;;;;;6.15;1.90;;;4.70;80.90;;;;;;4993345;28;20269;-79
2022/02/27 09:57:30;;;;;;;5.53;1.73;;;4.80;80.40;;;;;;4991262;28;20178;-75
2022/02/27 10:00:00;;;;;;;4.90;1.98;;;4.90;80.20;;;;;;4993595;28;20046;-74
2022/02/27 10:02:29;;;;;;;7.97;1.85;;;4.90;80.30;;;;;;4996124;28;20042;-75
2022/02/27 10:05:00;;;;;;;8.32;1.98;;;5.00;80.20;;;;;;4996387;28;20049;-76
2022/02/27 10:07:28;;;;;;;5.88;2.40;;;5.10;80.20;;;;;;4995755;28;20042;-75
2022/02/27 10:10:05;;;;;;;7.88;3.15;;;5.20;79.90;;;;;;4993980;28;20475;-74
2022/02/27 10:12:33;;;;;;;4.95;1.88;;;5.20;79.70;;;;;;4993778;28;20413;-77
2022/02/27 10:15:03;;;;;;;5.20;2.00;;;5.30;79.60;;;;;;4996274;28;20042;-77
2022/02/27 10:17:49;;;;;;;6.00;2.05;;;5.30;79.70;;;;;;4996432;28;20049;-74
2022/02/27 10:20:17;;;;;;;7.15;2.00;;;5.40;79.50;;;;;;4995793;28;20058;-75
2022/02/27 10:22:46;;;;;;;5.00;1.83;;;5.50;79.80;;;;;;4993051;28;20192;-77
2022/02/27 10:25:25;;;;;;;5.32;1.92;;;5.50;78.80;;;;;;4996010;28;20045;-75
2022/02/27 10:27:56;;;;;;;5.75;2.20;;;5.60;78.80;;;;;;4993542;28;20042;-76
2022/02/27 10:30:28;;;;;;;6.50;1.48;;;5.70;78.10;;;;;;4994341;28;20163;-74
2022/02/27 10:33:02;;;;;;;7.35;1.70;;;5.70;76.90;;;;;;4993939;28;20041;-73
2022/02/27 10:35:39;;;;;;;5.43;1.58;;;5.70;76.70;;;;;;4994476;28;20041;-77
2022/02/27 10:40:59;;;;;;;4.63;1.17;;;5.80;75.90;;;;;;4972976;28;20046;-75
2022/02/27 10:43:26;;;;;;;4.30;1.77;;;5.90;76.00;;;;;;4974226;28;20043;-77
2022/02/27 10:46:04;;;;;;;5.80;1.90;;;5.90;75.90;;;;;;4972842;28;20054;-76
2022/02/27 10:48:33;;;;;;;6.43;1.83;;;6.00;76.00;;;;;;4974454;28;20062;-77
2022/02/27 10:51:05;;;;;;;7.20;2.47;;;6.00;75.70;;;;;;4962024;28;20054;-75
2022/02/27 10:53:40;;;;;;;4.95;2.03;;;6.10;75.40;;;;;;4972587;28;20059;-75
2022/02/27 10:56:12;;;;;;;5.63;2.00;;;6.10;75.30;;;;;;4973083;28;20113;-75
2022/02/27 10:58:46;;;;;;;5.57;2.30;;;6.10;74.40;;;;;;4973855;28;20035;-76
2022/02/27 11:01:19;;;;;;;5.03;2.05;;;6.20;74.30;;;;;;4969119;28;20068;-74
2022/02/27 11:03:49;;;;;;;3.03;1.30;;;6.20;74.10;;;;;;4955887;28;20676;-75
2022/02/27 11:06:20;;;;;;;4.13;1.83;;;6.30;74.20;;;;;;4974167;28;20137;-74
2022/02/27 11:08:49;;;;;;;4.72;1.15;;;6.20;73.10;;;;;;4972378;28;20071;-74
2022/02/27 11:11:17;;;;;;;4.55;1.63;;;6.30;73.10;;;;;;4973925;28;20136;-74
2022/02/27 11:13:46;;;;;;;2.85;1.05;;;6.20;73.00;;;;;;4971212;28;20055;-74
2022/02/27 11:16:13;;;;;;;5.38;1.65;;;6.30;72.10;;;;;;4973151;28;20477;-73
2022/02/27 11:18:44;;;;;;;5.97;2.08;;;6.40;72.50;;;;;;4951966;28;20058;-75
2022/02/27 11:21:15;;;;;;;3.42;1.70;;;6.40;72.30;;;;;;4974315;28;20125;-75
2022/02/27 11:23:45;;;;;;;6.07;2.30;;;6.50;72.40;;;;;;4972043;28;20094;-75
2022/02/27 11:26:13;;;;;;;6.03;1.92;;;6.50;72.30;;;;;;4973674;28;20061;-73
2022/02/27 11:28:45;;;;;;;4.85;1.70;;;6.50;71.80;;;;;;4976517;28;20042;-74
2022/02/27 11:31:21;;;;;;;6.53;1.55;;;6.50;71.40;;;;;;4972611;28;20161;-74
2022/02/27 11:33:50;;;;;;;4.13;1.65;;;6.60;69.70;;;;;;4974288;28;20042;-74
2022/02/27 11:36:22;;;;;;;7.35;2.28;;;6.60;70.30;;;;;;4979622;28;20104;-73
2022/02/27 11:39:00;;;;;;;3.72;2.10;;;6.70;70.60;;;;;;4992058;28;20057;-75
2022/02/27 11:41:50;;;;;;;7.95;2.42;;;6.70;70.80;;;;;;4970879;28;20050;-75
2022/02/27 11:44:31;;;;;;;9.23;3.38;;;6.70;70.50;;;;;;4991195;28;20038;-74
2022/02/27 11:47:05;;;;;;;8.90;3.70;;;6.70;70.60;;;;;;4994158;28;20135;-76
2022/02/27 11:49:34;;;;;;;10.63;4.00;;;6.70;70.30;;;;;;4993126;28;20097;-74
2022/02/27 11:52:06;;;;;;;9.35;2.97;;;6.70;70.30;;;;;;4994570;28;20049;-76
2022/02/27 11:54:44;;;;;;;6.60;2.63;;;6.80;68.60;;;;;;4992472;28;20050;-74
2022/02/27 11:57:15;;;;;;;9.68;3.03;;;6.80;68.80;;;;;;4993440;28;20172;-75
2022/02/27 12:00:01;;;;;;;6.25;2.15;;;6.80;68.70;;;;;;4993907;28;20046;-75
2022/02/27 12:02:44;;;;;;;5.30;1.95;;;6.80;68.80;;;;;;4991798;28;20039;-75
2022/02/27 12:05:17;;;;;;;8.45;2.45;;;6.80;68.90;;;;;;4992785;28;20045;-74
2022/02/27 12:08:09;;;;;;;4.60;1.67;;;6.80;68.80;;;;;;4991270;28;20132;-75
2022/02/27 12:10:44;;;;;;;5.82;1.58;;;6.80;67.50;;;;;;4990617;28;20165;-74
2022/02/27 12:13:23;;;;;;;4.32;1.83;;;6.80;67.70;;;;;;4990958;28;20050;-74
2022/02/27 12:16:06;;;;;;;4.57;1.35;;;6.80;68.40;;;;;;4994338;28;20041;-75
2022/02/27 12:18:50;;;;;;;5.72;1.95;;;6.70;68.70;;;;;;4994466;28;20070;-74
2022/02/27 12:21:22;;;;;;;11.55;3.80;;;6.70;68.70;;;;;;4991226;28;20121;-74
2022/02/27 12:23:51;;;;;;;11.85;3.95;;;6.80;69.00;;;;;;4990086;28;20630;-74
2022/02/27 12:26:42;;;;;;;13.13;5.60;;;6.80;69.50;;;;;;4990251;28;20041;-74
2022/02/27 12:29:28;;;;;;;13.45;6.10;;;6.80;69.40;;;;;;4989645;28;20052;-74
2022/02/27 12:31:56;;;;;;;18.80;7.60;;;6.80;69.80;;;;;;4991207;28;20045;-74
2022/02/27 12:34:27;;;;;;;17.73;7.13;;;6.80;70.00;;;;;;4992966;28;20504;-73
2022/02/27 12:36:57;;;;;;;13.27;6.32;;;6.80;69.90;;;;;;4964682;28;20313;-74
2022/02/27 12:39:31;;;;;;;15.07;5.20;;;6.80;69.40;;;;;;4970259;28;20535;-73
2022/02/27 12:41:58;;;;;;;10.73;4.53;;;6.80;69.50;;;;;;4969160;28;20128;-76
2022/02/27 12:44:27;;;;;;;10.70;4.30;;;6.90;69.30;;;;;;4971747;28;20047;-76
2022/02/27 12:46:56;;;;;;;9.60;3.90;;;6.80;69.20;;;;;;4969612;28;20133;-76
2022/02/27 12:52:17;;;;;;;8.90;3.60;;;6.90;68.20;;;;;;4971000;28;20107;-76
2022/02/27 12:54:51;;;;;;;9.90;4.47;;;6.80;68.70;;;;;;4972176;28;20544;-74
2022/02/27 12:57:19;;;;;;;8.23;3.80;;;6.80;68.60;;;;;;4971296;28;20058;-75
2022/02/27 12:59:48;;;;;;;10.00;4.65;;;6.80;68.70;;;;;;4969205;28;20141;-75
2022/02/27 13:02:17;;;;;;;9.52;4.20;;;6.90;67.60;;;;;;4968779;28;20046;-76
2022/02/27 13:04:46;;;;;;;9.63;3.60;;;6.80;68.20;;;;;;4972255;28;20046;-75
2022/02/27 13:07:36;;;;;;;12.95;4.88;;;6.90;68.50;;;;;;4976875;28;20473;-75
2022/02/27 13:10:07;;;;;;;11.15;4.68;;;6.80;68.60;;;;;;4978074;28;20053;-75
2022/02/27 13:12:34;;;;;;;12.18;5.05;;;6.80;68.80;;;;;;4975423;28;20052;-74
2022/02/27 13:15:05;;;;;;;14.55;5.07;;;6.90;68.90;;;;;;4971906;28;20050;-78
2022/02/27 13:17:34;;;;;;;12.70;5.05;;;6.90;69.00;;;;;;4950851;28;20050;-74
2022/02/27 13:20:07;;;;;;;13.13;5.82;;;6.90;69.20;;;;;;4973338;28;20188;-77
2022/02/27 13:22:36;;;;;;;11.43;5.15;;;6.80;69.40;;;;;;4973839;28;20050;-77